createdAt,value
2022-09-18T00:02:36.589Z,1.45
2022-09-18T00:07:38.144Z,1.67
2022-09-18T00:12:39.706Z,1.65
2022-09-18T00:17:41.270Z,3.03
2022-09-18T00:22:43.173Z,2.03
2022-09-18T00:27:44.714Z,3.42
2022-09-18T00:32:46.296Z,2.83
2022-09-18T00:37:47.882Z,2.38
2022-09-18T00:42:49.463Z,3.17
2022-09-18T00:47:52.438Z,1.65
2022-09-18T00:52:58.876Z,2.40
2022-09-18T00:58:03.201Z,5.43
2022-09-18T01:03:05.371Z,2.80
2022-09-18T01:08:25.543Z,3.97
2022-09-18T01:13:34.909Z,3.60
2022-09-18T01:19:02.485Z,5.93
2022-09-18T01:24:33.103Z,11.70
2022-09-18T01:30:02.464Z,4.68
2022-09-18T01:35:48.051Z,3.20
2022-09-18T01:40:49.568Z,1.73
2022-09-18T01:45:55.470Z,3.28
2022-09-18T01:51:21.432Z,3.00
2022-09-18T01:56:28.367Z,3.17
2022-09-18T02:01:33.831Z,2.42
2022-09-18T02:06:44.511Z,5.03
2022-09-18T02:11:52.197Z,2.10
2022-09-18T02:17:01.398Z,1.52
2022-09-18T02:22:10.940Z,3.05
2022-09-18T02:27:15.333Z,1.08
2022-09-18T02:32:17.260Z,0.95
2022-09-18T02:37:29.229Z,1.75
2022-09-18T02:42:52.170Z,3.50
2022-09-18T02:48:21.707Z,1.48
2022-09-18T02:53:42.429Z,4.82
2022-09-18T02:58:56.223Z,5.93
2022-09-18T03:04:10.262Z,6.28
2022-09-18T03:09:26.323Z,10.55
2022-09-18T03:14:28.367Z,7.05
2022-09-18T03:19:30.549Z,17.15
2022-09-18T03:24:33.515Z,9.80
2022-09-18T03:29:37.137Z,5.25
2022-09-18T03:34:39.385Z,5.80
2022-09-18T03:39:40.953Z,6.47
2022-09-18T03:44:46.233Z,5.50
2022-09-18T03:50:01.719Z,9.20
2022-09-18T03:55:07.465Z,10.05
2022-09-18T04:00:38.276Z,14.27
2022-09-18T04:05:49.222Z,13.82
2022-09-18T04:10:56.637Z,6.75
2022-09-18T04:15:59.540Z,9.18
2022-09-18T04:21:03.769Z,6.90
2022-09-18T04:26:09.499Z,11.23
2022-09-18T04:31:16.912Z,8.30
2022-09-18T04:36:18.723Z,6.70
2022-09-18T04:41:21.777Z,7.95
2022-09-18T04:46:23.453Z,7.95
2022-09-18T04:51:27.022Z,9.13
2022-09-18T04:56:28.787Z,7.40
2022-09-18T05:01:32.094Z,9.75
2022-09-18T05:06:37.682Z,14.60
2022-09-18T05:11:39.322Z,9.57
2022-09-18T05:16:40.870Z,9.75
2022-09-18T05:22:02.729Z,7.82
2022-09-18T05:27:09.248Z,6.90
2022-09-18T05:32:11.217Z,6.60
2022-09-18T05:37:14.100Z,7.03
2022-09-18T05:42:16.315Z,5.18
2022-09-18T05:47:18.979Z,7.32
2022-09-18T05:52:21.056Z,11.05
2022-09-18T05:57:23.211Z,8.63
2022-09-18T06:02:25.093Z,10.57
2022-09-18T06:07:42.867Z,5.88
2022-09-18T06:12:45.289Z,8.40
2022-09-18T06:17:51.399Z,10.15
2022-09-18T06:22:54.070Z,8.80
2022-09-18T06:28:09.946Z,14.73
2022-09-18T06:33:12.261Z,14.15
2022-09-18T06:38:15.670Z,9.05
2022-09-18T06:43:22.393Z,3.60
2022-09-18T06:48:51.089Z,9.25
2022-09-18T06:53:52.903Z,10.55
2022-09-18T06:58:55.484Z,11.30
2022-09-18T07:03:57.725Z,9.18
2022-09-18T07:09:07.416Z,5.40
2022-09-18T07:14:32.369Z,20.53
2022-09-18T07:19:43.750Z,9.75
2022-09-18T07:24:47.963Z,8.40
2022-09-18T07:29:51.157Z,8.02
2022-09-18T07:34:54.682Z,5.95
2022-09-18T07:40:02.043Z,5.45
2022-09-18T07:45:22.812Z,11.73
2022-09-18T07:50:25.194Z,6.40
2022-09-18T07:55:28.716Z,7.05
2022-09-18T08:00:36.224Z,9.57
2022-09-18T08:05:38.835Z,5.88
2022-09-18T08:10:43.214Z,4.47
2022-09-18T08:16:13.937Z,8.25
2022-09-18T08:21:34.293Z,9.30
2022-09-18T08:26:38.791Z,5.82
2022-09-18T08:31:41.700Z,13.75
2022-09-18T08:36:45.204Z,4.90
2022-09-18T08:42:26.034Z,8.10
2022-09-18T08:47:53.254Z,6.32
2022-09-18T08:53:23.460Z,5.20
2022-09-18T08:59:00.958Z,7.55
2022-09-18T09:04:19.427Z,4.68
2022-09-18T09:09:29.517Z,8.55
2022-09-18T09:14:56.700Z,5.15
2022-09-18T09:20:16.975Z,7.72
2022-09-18T09:25:25.179Z,6.63
2022-09-18T09:30:56.025Z,9.13
2022-09-18T09:36:29.520Z,4.45
2022-09-18T09:41:48.026Z,5.10
2022-09-18T09:46:50.100Z,7.97
2022-09-18T09:52:11.076Z,6.18
2022-09-18T09:57:49.609Z,4.95
2022-09-18T10:03:16.140Z,7.30
2022-09-18T10:08:29.333Z,2.63
2022-09-18T10:13:33.116Z,6.10
2022-09-18T10:18:42.066Z,4.35
2022-09-18T10:23:53.369Z,7.10
2022-09-18T10:28:56.381Z,3.72
2022-09-18T10:33:58.395Z,1.83
2022-09-18T10:39:34.448Z,3.95
2022-09-18T10:44:41.389Z,2.92
2022-09-18T10:50:06.507Z,3.80
2022-09-18T10:55:28.336Z,4.00
2022-09-18T11:00:47.534Z,3.05
2022-09-18T11:05:57.526Z,2.25
2022-09-18T11:11:31.688Z,2.67
2022-09-18T11:16:48.735Z,1.60
2022-09-18T11:21:56.070Z,2.03
2022-09-18T11:27:03.943Z,4.93
2022-09-18T11:32:26.126Z,2.17
2022-09-18T11:37:53.187Z,2.27
2022-09-18T11:42:56.985Z,2.17
2022-09-18T11:48:29.969Z,1.27
2022-09-18T11:53:39.356Z,2.97
2022-09-18T11:59:03.617Z,0.80
2022-09-18T12:04:16.499Z,2.78
2022-09-18T12:09:45.695Z,3.50
2022-09-18T12:14:57.930Z,2.13
2022-09-18T12:20:08.776Z,4.90
2022-09-18T12:25:16.748Z,2.50
2022-09-18T12:30:50.111Z,2.90
2022-09-18T12:36:07.026Z,2.40
2022-09-18T12:41:33.779Z,2.08
2022-09-18T12:46:50.678Z,1.42
2022-09-18T12:52:43.508Z,1.65
2022-09-18T12:58:44.715Z,1.35
2022-09-18T13:03:48.716Z,1.83
2022-09-18T13:09:01.719Z,3.08
2022-09-18T13:14:15.806Z,2.15
2022-09-18T13:19:26.161Z,2.25
2022-09-18T13:24:33.119Z,1.52
2022-09-18T13:29:51.389Z,4.93
2022-09-18T13:34:56.559Z,4.45
2022-09-18T13:40:10.323Z,1.27
2022-09-18T13:45:12.486Z,1.92
2022-09-18T13:50:18.951Z,1.13
2022-09-18T13:55:22.398Z,1.17
2022-09-18T14:00:24.387Z,0.95
2022-09-18T14:05:38.438Z,1.92
2022-09-18T14:11:14.975Z,2.83
2022-09-18T14:16:20.683Z,3.33
2022-09-18T14:21:31.776Z,1.00
2022-09-18T14:26:35.174Z,1.13
2022-09-18T14:31:49.317Z,0.80
2022-09-18T14:36:55.314Z,0.55
2022-09-18T14:42:05.682Z,0.60
2022-09-18T14:47:20.643Z,1.27
2022-09-18T14:52:31.950Z,1.40
2022-09-18T14:57:43.414Z,0.63
2022-09-18T15:02:50.736Z,1.08
2022-09-18T15:08:17.045Z,0.40
2022-09-18T15:13:23.714Z,1.42
2022-09-18T15:18:28.010Z,1.75
2022-09-18T15:23:38.269Z,2.03
2022-09-18T15:28:43.164Z,0.93
2022-09-18T15:33:56.228Z,1.35
2022-09-18T15:38:58.593Z,1.15
2022-09-18T15:44:00.463Z,0.50
2022-09-18T15:49:23.144Z,1.67
2022-09-18T15:54:27.262Z,1.92
2022-09-18T15:59:33.815Z,0.47
2022-09-18T16:04:36.337Z,1.42
2022-09-18T16:09:48.844Z,0.75
2022-09-18T16:14:56.828Z,2.05
2022-09-18T16:20:01.124Z,0.80
2022-09-18T16:25:13.750Z,0.75
2022-09-18T16:30:15.837Z,0.60
2022-09-18T16:35:17.597Z,0.70
2022-09-18T16:40:27.441Z,0.57
2022-09-18T16:45:29.512Z,0.55
2022-09-18T16:50:31.260Z,0.77
2022-09-18T16:55:33.616Z,0.28
2022-09-18T17:00:37.734Z,0.32
2022-09-18T17:05:39.580Z,0.55
2022-09-18T17:10:44.980Z,0.30
2022-09-18T17:15:46.936Z,0.75
2022-09-18T17:20:48.546Z,0.77
2022-09-18T17:25:50.531Z,0.80
2022-09-18T17:30:54.134Z,0.50
2022-09-18T17:35:55.855Z,0.40
2022-09-18T17:41:00.533Z,0.30
2022-09-18T17:46:05.210Z,0.30
2022-09-18T17:51:12.983Z,1.20
2022-09-18T17:56:17.276Z,0.25
2022-09-18T18:01:20.795Z,0.22
2022-09-18T18:06:22.500Z,1.02
2022-09-18T18:11:29.373Z,1.30
2022-09-18T18:16:31.712Z,0.80
2022-09-18T18:21:34.531Z,0.47
2022-09-18T18:26:37.740Z,0.40
2022-09-18T18:31:43.445Z,0.82
2022-09-18T18:36:45.293Z,0.73
2022-09-18T18:41:47.506Z,0.45
2022-09-18T18:46:51.140Z,0.82
2022-09-18T18:51:53.039Z,1.55
2022-09-18T18:56:54.781Z,0.30
2022-09-18T19:01:57.957Z,0.65
2022-09-18T19:07:00.883Z,2.05
2022-09-18T19:12:03.406Z,0.40
2022-09-18T19:17:05.377Z,0.77
2022-09-18T19:22:07.116Z,0.30
2022-09-18T19:27:09.216Z,0.75
2022-09-18T19:32:10.897Z,0.52
2022-09-18T19:37:16.696Z,0.95
2022-09-18T19:42:24.177Z,0.50
2022-09-18T19:47:34.845Z,0.73
2022-09-18T19:52:36.769Z,1.38
2022-09-18T19:57:38.376Z,0.68
2022-09-18T20:02:41.131Z,2.83
2022-09-18T20:07:42.983Z,0.95
2022-09-18T20:12:44.740Z,1.63
2022-09-18T20:17:46.479Z,1.52
2022-09-18T20:22:51.936Z,0.60
2022-09-18T20:27:53.521Z,5.47
2022-09-18T20:32:55.092Z,0.30
2022-09-18T20:38:00.766Z,6.50
2022-09-18T20:43:04.316Z,0.82
2022-09-18T20:48:06.428Z,0.80
2022-09-18T20:53:09.223Z,0.82
2022-09-18T20:58:11.346Z,0.63
2022-09-18T21:03:14.242Z,0.63
2022-09-18T21:08:15.844Z,0.82
2022-09-18T21:13:19.135Z,0.85
2022-09-18T21:18:20.662Z,2.00
2022-09-18T21:23:40.582Z,0.75
2022-09-18T21:28:42.219Z,0.45
2022-09-18T21:33:44.241Z,1.30
2022-09-18T21:38:48.311Z,0.50
2022-09-18T21:43:51.132Z,0.70
2022-09-18T21:48:54.404Z,0.93
2022-09-18T21:53:59.132Z,0.95
2022-09-18T21:59:01.281Z,0.68
2022-09-18T22:04:03.010Z,0.38
2022-09-18T22:09:14.571Z,1.52
2022-09-18T22:14:25.408Z,1.55
2022-09-18T22:19:27.943Z,1.70
2022-09-18T22:24:29.899Z,1.10
2022-09-18T22:29:34.358Z,1.13
2022-09-18T22:34:35.975Z,1.70
2022-09-18T22:39:37.557Z,0.73
2022-09-18T22:44:39.147Z,2.20
2022-09-18T22:49:41.148Z,1.30
2022-09-18T22:54:42.688Z,0.70
2022-09-18T22:59:44.246Z,0.50
2022-09-18T23:04:46.956Z,1.58
2022-09-18T23:09:48.546Z,1.30
2022-09-18T23:14:50.096Z,2.53
2022-09-18T23:19:51.651Z,3.00
2022-09-18T23:24:53.189Z,1.60
2022-09-18T23:29:54.957Z,2.20
2022-09-18T23:34:56.547Z,0.95
2022-09-18T23:39:58.084Z,0.98
2022-09-18T23:44:59.674Z,1.40
2022-09-18T23:50:01.289Z,1.15
2022-09-18T23:55:02.917Z,1.88
